Time;durP1;ratioP1;P1;durP2;ratioP2;P2;SDS_P1;SDS_P2;PMS_P1;PMS_P2;Temp;Humidity;BMP_temperature;BMP_pressure;BME280_temperature;BME280_humidity;BME280_pressure;Samples;Min_cycle;Max_cycle;Signal;HPM_P1;HPM_P2
2024/01/24 00:00:07;;;;;;;6.43;1.40;;;;;;;8.75;82.91;96338.72;5015530;28;20297;-76
2024/01/24 00:02:33;;;;;;;5.97;1.60;;;;;;;8.84;83.37;96332.00;5009542;28;20187;-76
2024/01/24 00:04:58;;;;;;;6.70;2.07;;;;;;;8.97;82.79;96331.88;5035083;28;20657;-78
2024/01/24 00:07:23;;;;;;;8.27;1.37;;;;;;;8.75;83.56;96328.34;5035180;28;20237;-78
2024/01/24 00:09:49;;;;;;;3.53;1.17;;;;;;;9.00;83.00;96324.69;5034120;28;20213;-78
2024/01/24 00:12:14;;;;;;;7.07;1.30;;;;;;;8.97;83.04;96321.50;5008326;28;20618;-75
2024/01/24 00:14:39;;;;;;;5.60;1.17;;;;;;;8.97;82.57;96290.44;5018387;28;20186;-78
2024/01/24 00:17:05;;;;;;;6.67;2.17;;;;;;;9.08;82.69;96275.69;5017647;28;20561;-76
2024/01/24 00:19:31;;;;;;;3.63;1.20;;;;;;;9.19;82.77;96293.00;5008671;28;20225;-77
2024/01/24 00:21:56;;;;;;;8.93;1.13;;;;;;;9.08;83.19;96293.00;5037077;28;20187;-77
2024/01/24 00:24:21;;;;;;;2.93;1.00;;;;;;;9.20;82.31;96292.06;5037067;28;20190;-78
2024/01/24 00:26:47;;;;;;;5.30;1.57;;;;;;;9.12;83.02;96288.41;5036553;28;20182;-77
2024/01/24 00:29:12;;;;;;;4.57;1.10;;;;;;;9.45;81.64;96258.97;5036897;28;20206;-78
2024/01/24 00:31:37;;;;;;;4.67;1.40;;;;;;;9.13;82.64;96264.97;5018389;28;20660;-77
2024/01/24 00:34:03;;;;;;;8.07;1.27;;;;;;;9.15;82.87;96263.06;5018191;28;20672;-78
2024/01/24 00:36:28;;;;;;;4.73;1.30;;;;;;;9.33;82.31;96268.56;5035401;28;20221;-78
2024/01/24 00:38:53;;;;;;;3.67;1.00;;;;;;;9.44;81.96;96284.06;5018709;28;20202;-77
2024/01/24 00:41:19;;;;;;;3.90;1.23;;;;;;;9.40;82.75;96277.50;5034663;28;20207;-77
2024/01/24 00:43:44;;;;;;;5.57;1.23;;;;;;;9.34;82.62;96285.75;5019152;28;20718;-77
2024/01/24 00:46:09;;;;;;;3.50;1.13;;;;;;;9.55;81.54;96285.84;5036575;28;20186;-77
2024/01/24 00:48:35;;;;;;;6.13;1.30;;;;;;;9.37;82.52;96269.97;5036498;28;20648;-78
2024/01/24 00:51:00;;;;;;;4.60;1.20;;;;;;;9.54;81.78;96278.97;5035054;28;20218;-78
2024/01/24 00:53:28;;;;;;;3.43;1.07;;;;;;;9.65;80.65;96269.41;5018950;28;20277;-78
2024/01/24 00:55:56;;;;;;;3.77;1.47;;;;;;;9.31;82.53;96260.91;5002206;28;20429;-77
2024/01/24 00:58:22;;;;;;;3.80;0.93;;;;;;;9.52;82.27;96260.94;5035576;28;20190;-78
2024/01/24 01:00:47;;;;;;;5.67;1.30;;;;;;;9.52;82.76;96260.13;5034746;28;20217;-77
2024/01/24 01:03:12;;;;;;;4.20;1.20;;;;;;;9.52;82.43;96249.75;5017469;28;20205;-77
2024/01/24 01:05:38;;;;;;;7.20;1.53;;;;;;;9.44;83.20;96257.31;5008158;28;20183;-78
2024/01/24 01:08:05;;;;;;;3.10;1.20;;;;;;;9.66;82.38;96244.28;5035738;28;20234;-78
2024/01/24 01:10:30;;;;;;;4.43;1.30;;;;;;;9.66;82.37;96265.03;5033263;28;20202;-75
2024/01/24 01:12:56;;;;;;;4.23;1.20;;;;;;;9.77;81.43;96257.19;5018211;28;20194;-77
2024/01/24 01:15:21;;;;;;;2.83;1.30;;;;;;;9.48;82.70;96248.38;5035202;28;20186;-77
2024/01/24 01:17:46;;;;;;;4.23;1.00;;;;;;;9.63;82.47;96247.16;5018351;28;20229;-77
2024/01/24 01:20:14;;;;;;;3.27;1.10;;;;;;;9.64;83.00;96228.03;5017851;28;21182;-77
2024/01/24 01:22:39;;;;;;;3.93;1.40;;;;;;;9.73;82.77;96245.44;5035105;28;20552;-77
2024/01/24 01:25:05;;;;;;;6.53;1.33;;;;;;;9.86;82.01;96243.47;5001300;28;20221;-77
2024/01/24 01:27:30;;;;;;;3.47;1.10;;;;;;;9.85;82.27;96238.41;5008680;28;20688;-77
2024/01/24 01:29:55;;;;;;;5.60;1.27;;;;;;;9.70;82.94;96230.09;5017116;28;20252;-77
2024/01/24 01:32:21;;;;;;;5.67;1.30;;;;;;;9.73;83.02;96222.09;5018397;28;20218;-77
2024/01/24 01:34:46;;;;;;;4.37;1.27;;;;;;;9.76;83.42;96215.84;5011907;28;20201;-77
2024/01/24 01:37:12;;;;;;;2.50;1.17;;;;;;;9.70;83.38;96214.56;5007268;28;20345;-77
2024/01/24 01:39:37;;;;;;;4.13;1.10;;;;;;;9.96;82.60;96222.78;5017070;28;20563;-77
2024/01/24 01:42:03;;;;;;;4.57;1.07;;;;;;;10.09;81.58;96220.00;5003676;28;20331;-77
2024/01/24 01:44:28;;;;;;;3.40;1.07;;;;;;;9.83;83.46;96217.78;5036123;28;20195;-77
2024/01/24 01:46:54;;;;;;;3.37;1.23;;;;;;;9.99;82.63;96221.72;5035198;28;20281;-77
2024/01/24 01:49:20;;;;;;;4.63;1.17;;;;;;;9.95;82.41;96236.72;5006525;28;20215;-77
2024/01/24 01:51:45;;;;;;;7.93;1.53;;;;;;;10.11;81.87;96246.66;5032002;28;20301;-77
2024/01/24 01:54:13;;;;;;;5.23;1.30;;;;;;;10.10;81.83;96243.22;5016565;28;20186;-77
2024/01/24 01:56:38;;;;;;;2.83;1.10;;;;;;;9.99;82.46;96237.28;5015096;28;20201;-77
2024/01/24 01:59:05;;;;;;;4.20;1.20;;;;;;;10.04;82.54;96222.16;5034215;28;20589;-77
2024/01/24 02:01:30;;;;;;;2.27;1.07;;;;;;;10.06;81.77;96221.06;5034301;28;20206;-77
2024/01/24 02:03:56;;;;;;;3.87;1.23;;;;;;;10.10;81.99;96212.09;5003502;28;20213;-77
2024/01/24 02:06:22;;;;;;;4.90;1.20;;;;;;;10.07;82.05;96203.72;5033718;28;20189;-77
2024/01/24 02:08:48;;;;;;;3.43;1.30;;;;;;;10.10;81.83;96200.88;5017137;28;20222;-77
2024/01/24 02:11:13;;;;;;;3.13;1.07;;;;;;;10.14;81.29;96202.25;5016581;28;20206;-77
2024/01/24 02:13:39;;;;;;;4.87;1.10;;;;;;;10.14;81.22;96197.06;5034370;28;20179;-77
2024/01/24 02:16:04;;;;;;;3.23;1.30;;;;;;;10.15;81.02;96181.34;5034658;28;20199;-77
2024/01/24 02:18:30;;;;;;;7.37;1.40;;;;;;;10.20;80.66;96183.59;5034946;28;20656;-77
2024/01/24 02:20:56;;;;;;;4.30;1.20;;;;;;;9.96;81.28;96172.66;5016967;28;20210;-77
2024/01/24 02:23:23;;;;;;;3.40;1.10;;;;;;;9.96;81.19;96186.47;5010064;28;20326;-77
2024/01/24 02:25:49;;;;;;;2.97;1.10;;;;;;;9.94;81.13;96184.00;5017431;28;20187;-77
2024/01/24 02:28:15;;;;;;;5.73;1.40;;;;;;;10.07;80.64;96177.75;5011819;28;20318;-77
2024/01/24 02:30:40;;;;;;;2.23;1.00;;;;;;;9.97;81.16;96174.31;5033048;28;20240;-77
2024/01/24 02:33:05;;;;;;;3.53;1.10;;;;;;;10.12;79.95;96168.66;5014922;28;20195;-77
2024/01/24 02:35:30;;;;;;;5.63;1.07;;;;;;;10.04;80.38;96167.66;5035219;28;20187;-77
2024/01/24 02:37:56;;;;;;;3.27;1.10;;;;;;;10.10;79.39;96170.56;5017291;28;20755;-77
2024/01/24 02:40:21;;;;;;;4.67;1.70;;;;;;;9.94;80.60;96162.41;5001598;28;20220;-77
2024/01/24 02:42:46;;;;;;;3.53;1.37;;;;;;;10.12;79.69;96173.03;5016878;28;20194;-77
2024/01/24 02:45:12;;;;;;;2.13;1.30;;;;;;;9.91;80.25;96171.28;5009021;28;20672;-75
2024/01/24 02:47:37;;;;;;;4.43;1.53;;;;;;;10.09;79.43;96165.50;5016248;28;20197;-77
2024/01/24 02:50:04;;;;;;;3.77;1.13;;;;;;;9.85;80.29;96169.19;5034577;28;20199;-77
2024/01/24 02:52:29;;;;;;;6.10;1.40;;;;;;;9.88;80.21;96155.97;5016836;28;20770;-77
2024/01/24 02:54:55;;;;;;;5.20;1.60;;;;;;;10.00;79.70;96154.13;5032652;28;20328;-77
2024/01/24 02:57:21;;;;;;;2.60;1.07;;;;;;;9.99;79.70;96159.44;5014520;28;20205;-77
2024/01/24 02:59:46;;;;;;;5.90;1.83;;;;;;;9.90;80.31;96146.31;5032871;28;20209;-77
2024/01/24 03:02:11;;;;;;;4.50;1.50;;;;;;;9.93;80.51;96146.03;5016278;28;20202;-77
2024/01/24 03:04:37;;;;;;;4.93;1.27;;;;;;;10.12;79.66;96154.84;5034650;28;20182;-77
2024/01/24 03:07:02;;;;;;;4.50;1.47;;;;;;;10.02;80.46;96164.38;5034338;28;20699;-77
2024/01/24 03:09:27;;;;;;;1.90;1.40;;;;;;;10.14;79.85;96158.13;5033661;28;20241;-77
2024/01/24 03:11:53;;;;;;;4.43;1.40;;;;;;;10.15;79.79;96152.81;5008347;28;20186;-77
2024/01/24 03:14:18;;;;;;;3.60;1.13;;;;;;;10.18;80.07;96160.34;5005876;28;20190;-77
2024/01/24 03:16:43;;;;;;;5.07;1.40;;;;;;;10.21;79.81;96159.25;5015342;28;20190;-77
2024/01/24 03:19:09;;;;;;;4.30;1.20;;;;;;;10.15;80.34;96150.22;5000185;28;20660;-77
2024/01/24 03:21:35;;;;;;;3.53;1.23;;;;;;;10.25;80.23;96158.09;5033574;28;20513;-77
2024/01/24 03:24:00;;;;;;;5.27;1.20;;;;;;;10.03;81.66;96159.06;5016226;28;20248;-77
2024/01/24 03:26:25;;;;;;;3.00;1.30;;;;;;;10.32;80.57;96148.00;5016130;28;20186;-77
2024/01/24 03:28:51;;;;;;;4.63;1.40;;;;;;;10.33;80.57;96152.22;5005661;28;20203;-77
2024/01/24 03:31:16;;;;;;;6.70;1.60;;;;;;;10.22;81.45;96147.97;5016216;28;20264;-77
2024/01/24 03:33:42;;;;;;;3.57;1.30;;;;;;;10.21;81.86;96149.69;5033970;28;20186;-77
2024/01/24 03:36:07;;;;;;;3.87;1.30;;;;;;;10.38;81.23;96148.31;5016456;28;20186;-77
2024/01/24 03:38:33;;;;;;;5.73;1.87;;;;;;;10.23;81.82;96157.38;5034117;28;20206;-77
2024/01/24 03:40:59;;;;;;;3.07;1.23;;;;;;;10.41;81.29;96144.59;5015473;28;20210;-77
2024/01/24 03:43:24;;;;;;;2.80;1.27;;;;;;;10.42;81.53;96141.91;5033341;28;20285;-77
2024/01/24 03:45:49;;;;;;;3.50;1.20;;;;;;;10.41;81.38;96144.59;5032793;28;20226;-77
2024/01/24 03:48:14;;;;;;;4.33;1.40;;;;;;;10.39;81.64;96123.16;5007846;28;20217;-77
2024/01/24 03:50:40;;;;;;;4.23;1.33;;;;;;;10.53;81.46;96142.75;5015612;28;20213;-77
2024/01/24 03:53:05;;;;;;;3.77;1.50;;;;;;;10.58;81.31;96130.16;5013950;28;20215;-77
2024/01/24 03:55:30;;;;;;;5.23;1.50;;;;;;;10.55;82.22;96146.03;5016038;28;20556;-77
2024/01/24 03:57:56;;;;;;;2.73;1.60;;;;;;;10.61;81.72;96150.69;5015951;28;20206;-77
2024/01/24 04:00:22;;;;;;;4.63;1.20;;;;;;;10.61;81.91;96166.28;5010181;28;20273;-77
2024/01/24 04:02:47;;;;;;;3.87;1.20;;;;;;;10.57;81.85;96154.50;5007187;28;20186;-77
2024/01/24 04:05:14;;;;;;;4.00;1.47;;;;;;;10.56;82.43;96158.06;5016029;28;20183;-77
2024/01/24 04:07:39;;;;;;;5.33;1.30;;;;;;;10.65;81.81;96162.44;5008859;28;20210;-77
2024/01/24 04:10:05;;;;;;;2.70;1.30;;;;;;;10.63;82.15;96156.56;5003473;28;20246;-77
2024/01/24 04:12:30;;;;;;;4.37;1.50;;;;;;;10.61;82.41;96163.69;5008453;28;20197;-77
2024/01/24 04:14:56;;;;;;;3.23;1.53;;;;;;;10.66;82.45;96200.47;5015624;28;20189;-77
2024/01/24 04:17:21;;;;;;;4.60;1.50;;;;;;;10.68;82.59;96183.78;5032875;28;20199;-77
2024/01/24 04:19:46;;;;;;;4.20;1.60;;;;;;;10.67;82.54;96191.72;5015405;28;20305;-77
2024/01/24 04:22:12;;;;;;;4.10;1.20;;;;;;;10.73;82.89;96176.41;4999756;28;20210;-77
2024/01/24 04:24:37;;;;;;;4.33;1.20;;;;;;;10.74;82.71;96183.25;5006442;28;20178;-77
2024/01/24 04:27:03;;;;;;;3.47;1.30;;;;;;;10.91;81.88;96186.16;5032449;28;20186;-77
2024/01/24 04:29:28;;;;;;;3.70;1.17;;;;;;;10.84;82.45;96195.44;5002117;28;20215;-77
2024/01/24 04:31:53;;;;;;;3.90;1.97;;;;;;;10.86;82.25;96207.34;5033899;28;20189;-77
2024/01/24 04:34:19;;;;;;;2.73;1.27;;;;;;;10.72;83.52;96210.31;5015644;28;20186;-77
2024/01/24 04:36:44;;;;;;;1.53;1.20;;;;;;;10.77;83.56;96208.97;5033987;28;20190;-77
2024/01/24 04:39:10;;;;;;;3.20;1.20;;;;;;;10.77;83.69;96253.13;5019355;28;20199;-77
2024/01/24 04:41:36;;;;;;;3.23;1.00;;;;;;;10.96;83.54;96210.00;5002088;28;20210;-77
2024/01/24 04:44:02;;;;;;;1.97;1.00;;;;;;;11.04;82.87;96220.50;5033170;28;20625;-77
2024/01/24 04:46:27;;;;;;;4.93;1.40;;;;;;;10.89;83.92;96206.28;5032481;28;20679;-77
2024/01/24 04:48:52;;;;;;;1.97;1.17;;;;;;;10.90;83.74;96226.94;5036224;28;20230;-77
2024/01/24 04:51:18;;;;;;;1.93;1.30;;;;;;;10.87;84.33;96216.00;4991547;28;20244;-77
2024/01/24 04:53:43;;;;;;;2.17;1.03;;;;;;;10.85;84.49;96213.50;5035421;28;20687;-77
2024/01/24 04:56:08;;;;;;;2.57;1.10;;;;;;;10.94;83.94;96211.88;5036660;28;20206;-77
2024/01/24 04:58:34;;;;;;;2.10;1.00;;;;;;;10.80;84.90;96213.09;5036943;28;20193;-77
2024/01/24 05:01:00;;;;;;;2.63;1.33;;;;;;;10.92;84.00;96193.00;5036103;28;20217;-77
2024/01/24 05:03:25;;;;;;;3.47;1.20;;;;;;;10.99;83.92;96213.13;5036539;28;20193;-77
2024/01/24 05:05:51;;;;;;;2.40;1.20;;;;;;;10.94;83.54;96194.50;5001754;28;20191;-77
2024/01/24 05:08:16;;;;;;;2.50;1.03;;;;;;;10.96;83.65;96197.00;5016888;28;20203;-77
2024/01/24 05:10:42;;;;;;;2.80;1.07;;;;;;;11.04;83.12;96190.16;5035375;28;20225;-77
2024/01/24 05:13:07;;;;;;;1.90;0.80;;;;;;;10.95;83.45;96203.94;5002132;28;20571;-77
2024/01/24 05:15:33;;;;;;;3.53;1.00;;;;;;;11.05;82.90;96223.00;5030014;28;20198;-77
2024/01/24 05:17:58;;;;;;;1.57;0.90;;;;;;;11.11;82.59;96231.19;5035658;28;20526;-77
2024/01/24 05:20:23;;;;;;;1.93;0.80;;;;;;;11.04;82.88;96223.97;5017763;28;20264;-77
2024/01/24 05:22:49;;;;;;;3.77;1.00;;;;;;;11.12;82.40;96218.06;5018128;28;20633;-77
2024/01/24 05:25:14;;;;;;;3.43;0.93;;;;;;;11.21;82.12;96225.06;5017859;28;20193;-77
2024/01/24 05:27:39;;;;;;;4.00;0.97;;;;;;;11.22;82.03;96207.69;5032580;28;20728;-77
2024/01/24 05:30:05;;;;;;;3.03;0.90;;;;;;;11.10;82.56;96211.38;4996449;28;20688;-77
2024/01/24 05:32:31;;;;;;;1.73;0.80;;;;;;;11.23;81.76;96204.16;5035307;28;20198;-77
2024/01/24 05:34:57;;;;;;;1.07;0.70;;;;;;;11.33;81.09;96198.00;5013102;28;20197;-77
2024/01/24 05:37:22;;;;;;;1.90;0.80;;;;;;;11.27;81.88;96200.31;5013885;28;20634;-77
2024/01/24 05:39:48;;;;;;;2.33;0.90;;;;;;;11.23;82.13;96197.16;5015125;28;20215;-77
2024/01/24 05:42:13;;;;;;;0.73;0.50;;;;;;;11.22;82.25;96187.72;5001987;28;20657;-77
2024/01/24 05:44:38;;;;;;;2.20;0.80;;;;;;;11.11;82.49;96200.00;5020366;28;20194;-77
2024/01/24 05:47:04;;;;;;;1.33;0.60;;;;;;;11.27;81.77;96195.09;5030823;28;20210;-77
2024/01/24 05:49:29;;;;;;;0.97;0.70;;;;;;;11.27;81.58;96190.72;5013817;28;20333;-77
2024/01/24 05:51:54;;;;;;;1.00;0.50;;;;;;;11.30;81.15;96164.44;5026847;28;20191;-77
2024/01/24 05:54:21;;;;;;;1.17;0.50;;;;;;;11.32;81.04;96118.34;5017342;28;20193;-77
2024/01/24 05:56:46;;;;;;;0.80;0.50;;;;;;;11.28;81.27;96176.75;5000644;28;20178;-78
2024/01/24 05:59:11;;;;;;;1.63;1.13;;;;;;;11.49;80.43;96150.63;5018014;28;20237;-77
2024/01/24 06:01:37;;;;;;;1.67;0.80;;;;;;;11.27;80.96;96161.31;5006842;28;21041;-79
2024/01/24 06:04:02;;;;;;;1.07;0.87;;;;;;;11.51;79.96;96143.50;5016031;28;20270;-77
2024/01/24 06:06:27;;;;;;;2.47;1.53;;;;;;;11.45;79.76;96170.06;5032458;28;20197;-77
2024/01/24 06:08:53;;;;;;;2.10;0.87;;;;;;;11.40;80.59;96167.06;4999360;28;20777;-77
2024/01/24 06:11:18;;;;;;;1.13;0.80;;;;;;;11.50;79.80;96170.47;5033440;28;20696;-77
2024/01/24 06:13:43;;;;;;;0.53;0.53;;;;;;;11.45;80.01;96177.84;5011559;28;20561;-77
2024/01/24 06:16:10;;;;;;;4.27;2.70;;;;;;;11.61;79.42;96209.34;5015890;28;20266;-77
2024/01/24 06:18:35;;;;;;;3.13;1.43;;;;;;;11.67;79.12;96188.97;4999020;28;20563;-77
2024/01/24 06:21:01;;;;;;;3.87;1.77;;;;;;;11.57;79.46;96196.75;5018085;28;20208;-77
2024/01/24 06:23:26;;;;;;;3.17;2.23;;;;;;;11.78;78.50;96200.03;5014294;28;20186;-77
2024/01/24 06:25:51;;;;;;;4.40;2.40;;;;;;;11.73;78.77;96177.97;5008973;28;20194;-77
2024/01/24 06:28:17;;;;;;;1.77;0.77;;;;;;;11.67;79.22;96184.56;5004497;28;20203;-77
2024/01/24 06:30:42;;;;;;;1.77;1.40;;;;;;;11.59;79.37;96210.44;5030586;28;20237;-77
2024/01/24 06:33:07;;;;;;;0.73;0.67;;;;;;;11.86;78.62;96184.56;5016948;28;20182;-77
2024/01/24 06:35:32;;;;;;;1.07;0.50;;;;;;;11.91;78.56;96186.72;5025649;28;20187;-77
2024/01/24 06:37:58;;;;;;;1.03;0.43;;;;;;;11.64;81.01;96177.84;5006034;28;20190;-77
2024/01/24 06:40:23;;;;;;;1.50;0.40;;;;;;;11.61;82.39;96188.53;4999561;28;20592;-77
2024/01/24 06:42:50;;;;;;;1.23;0.40;;;;;;;11.66;82.58;96176.88;5033025;28;20201;-77
2024/01/24 06:45:15;;;;;;;0.90;0.50;;;;;;;11.50;83.59;96165.28;5000520;28;20190;-77
2024/01/24 06:47:41;;;;;;;0.40;0.40;;;;;;;11.56;84.01;96177.72;5000299;28;20223;-77
2024/01/24 06:50:07;;;;;;;0.40;0.40;;;;;;;11.32;86.19;96170.34;5015621;28;20220;-78
2024/01/24 06:52:33;;;;;;;0.50;0.50;;;;;;;11.33;86.45;96168.56;5033009;28;20194;-77
2024/01/24 06:54:58;;;;;;;0.30;0.30;;;;;;;11.16;88.29;96190.03;5015386;28;20197;-77
2024/01/24 06:57:23;;;;;;;2.10;0.60;;;;;;;11.20;88.25;96181.00;5032491;28;20644;-78
2024/01/24 06:59:49;;;;;;;0.83;0.40;;;;;;;11.37;88.16;96182.94;5032169;28;20730;-77
2024/01/24 07:02:14;;;;;;;1.23;0.33;;;;;;;10.94;90.93;96173.72;5006747;28;20251;-77
2024/01/24 07:04:39;;;;;;;1.30;0.43;;;;;;;11.12;90.09;96168.69;5015259;28;20222;-76
2024/01/24 07:07:05;;;;;;;0.47;0.40;;;;;;;11.03;90.51;96154.72;4995215;28;20190;-76
2024/01/24 07:09:30;;;;;;;1.17;0.40;;;;;;;11.05;90.56;96157.22;5013477;28;20211;-77
2024/01/24 07:11:56;;;;;;;0.80;0.40;;;;;;;11.11;89.97;96153.22;5006969;28;20195;-77
2024/01/24 07:14:21;;;;;;;0.30;0.30;;;;;;;11.00;90.50;96144.59;4989146;28;20210;-76
2024/01/24 07:16:47;;;;;;;0.43;0.30;;;;;;;10.99;90.35;96129.16;5027413;28;20186;-77
2024/01/24 07:19:12;;;;;;;0.40;0.40;;;;;;;11.01;90.20;96148.84;5011157;28;20179;-77
2024/01/24 07:21:37;;;;;;;1.70;0.60;;;;;;;11.21;89.00;96161.84;5003332;28;20190;-76
2024/01/24 07:24:03;;;;;;;0.53;0.30;;;;;;;11.11;89.76;96169.63;5029148;28;20186;-76
2024/01/24 07:26:29;;;;;;;1.43;0.60;;;;;;;11.06;90.14;96167.47;5030547;28;20210;-77
2024/01/24 07:28:54;;;;;;;0.30;0.30;;;;;;;11.15;89.26;96175.41;5014235;28;20273;-76
2024/01/24 07:31:19;;;;;;;0.70;0.50;;;;;;;11.15;89.60;96162.41;4998808;28;20206;-77
2024/01/24 07:33:45;;;;;;;0.40;0.30;;;;;;;11.13;89.79;96169.50;5010317;28;20187;-77
2024/01/24 07:36:10;;;;;;;1.00;0.40;;;;;;;11.34;88.74;96178.00;4999063;28;20686;-77
2024/01/24 07:38:37;;;;;;;0.40;0.40;;;;;;;11.34;88.38;96175.41;5007727;28;20194;-77
2024/01/24 07:41:02;;;;;;;0.53;0.40;;;;;;;11.17;89.71;96173.47;5032190;28;20204;-77
2024/01/24 07:43:29;;;;;;;0.40;0.37;;;;;;;11.17;90.03;96171.69;5033103;28;20190;-76
2024/01/24 07:45:54;;;;;;;0.80;0.43;;;;;;;11.30;89.74;96179.22;5014433;28;20186;-77
2024/01/24 07:48:20;;;;;;;1.37;0.30;;;;;;;11.24;89.99;96166.78;5033022;28;20202;-76
2024/01/24 07:50:45;;;;;;;0.43;0.30;;;;;;;11.21;90.99;96178.25;5007383;28;20214;-77
2024/01/24 07:53:11;;;;;;;1.17;0.50;;;;;;;11.41;89.71;96186.91;5025906;28;20179;-77
2024/01/24 07:55:36;;;;;;;0.57;0.57;;;;;;;11.22;91.24;96160.88;5033177;28;20182;-77
2024/01/24 07:58:02;;;;;;;0.80;0.70;;;;;;;11.27;90.38;96184.72;5015097;28;20178;-77
2024/01/24 08:00:27;;;;;;;0.47;0.47;;;;;;;11.37;90.01;96158.69;5032018;28;20203;-77
2024/01/24 08:02:52;;;;;;;0.70;0.40;;;;;;;11.60;88.29;96147.88;5007911;28;20663;-77
2024/01/24 08:05:18;;;;;;;1.17;0.63;;;;;;;11.44;88.73;96184.03;5011388;28;20276;-77
2024/01/24 08:07:44;;;;;;;0.40;0.40;;;;;;;11.29;90.15;96187.97;5012923;28;20270;-77
2024/01/24 08:10:10;;;;;;;0.53;0.20;;;;;;;11.56;88.99;96189.91;5009993;28;20213;-76
2024/01/24 08:12:37;;;;;;;1.13;0.70;;;;;;;11.38;89.43;96202.75;5013239;28;20640;-77
2024/01/24 08:15:05;;;;;;;1.20;0.60;;;;;;;11.61;89.50;96203.31;5033690;28;20198;-76
2024/01/24 08:17:30;;;;;;;1.20;0.80;;;;;;;11.77;88.88;96213.19;5034445;28;20182;-76
2024/01/24 08:19:56;;;;;;;0.53;0.50;;;;;;;11.67;90.01;96201.97;5016352;28;20731;-76
2024/01/24 08:22:21;;;;;;;0.30;0.30;;;;;;;11.68;89.83;96216.59;5018049;28;20182;-77
2024/01/24 08:24:46;;;;;;;0.70;0.53;;;;;;;11.49;91.02;96220.84;5014281;28;20213;-77
2024/01/24 08:27:12;;;;;;;0.60;0.50;;;;;;;11.58;91.24;96211.41;5021048;28;20225;-77
2024/01/24 08:29:37;;;;;;;0.50;0.40;;;;;;;11.61;91.09;96211.13;5009288;28;20203;-76
2024/01/24 08:32:04;;;;;;;0.30;0.30;;;;;;;11.44;92.16;96219.63;5036297;28;20229;-77
2024/01/24 08:34:29;;;;;;;0.30;0.30;;;;;;;11.45;91.35;96216.88;5020474;28;20193;-77
2024/01/24 08:36:54;;;;;;;0.50;0.50;;;;;;;11.68;90.55;96229.63;5017461;28;20190;-76
2024/01/24 08:39:20;;;;;;;1.10;0.73;;;;;;;11.53;91.37;96240.41;5019681;28;20568;-77
2024/01/24 08:41:46;;;;;;;0.50;0.30;;;;;;;11.55;91.23;96225.50;5003595;28;20250;-77
2024/01/24 08:44:11;;;;;;;0.90;0.50;;;;;;;11.77;90.43;96223.59;5018510;28;20214;-77
2024/01/24 08:46:36;;;;;;;0.80;0.47;;;;;;;11.97;89.35;96225.22;5020707;28;20653;-77
2024/01/24 08:49:02;;;;;;;0.40;0.40;;;;;;;11.75;90.06;96228.09;5003802;28;20933;-77
2024/01/24 08:51:31;;;;;;;0.87;0.50;;;;;;;11.77;90.78;96234.00;5019040;28;20195;-77
2024/01/24 08:53:57;;;;;;;0.30;0.30;;;;;;;11.81;90.83;96241.41;5004325;28;20187;-77
2024/01/24 08:56:23;;;;;;;0.30;0.30;;;;;;;11.66;91.31;96231.50;5000308;28;20187;-77
2024/01/24 08:58:48;;;;;;;0.37;0.37;;;;;;;11.94;90.48;96246.34;5011124;28;20577;-77
2024/01/24 09:01:13;;;;;;;0.47;0.27;;;;;;;11.96;90.59;96254.00;5017925;28;20199;-78
2024/01/24 09:03:39;;;;;;;0.40;0.40;;;;;;;11.80;91.38;96259.75;5019650;28;20652;-78
2024/01/24 09:06:05;;;;;;;0.40;0.40;;;;;;;12.10;90.33;96254.41;5020253;28;20322;-78
2024/01/24 09:08:30;;;;;;;1.13;0.53;;;;;;;12.01;91.14;96265.63;5009463;28;20206;-79
2024/01/24 09:10:56;;;;;;;1.90;0.80;;;;;;;12.02;91.82;96277.69;5017565;28;20205;-77
2024/01/24 09:13:22;;;;;;;0.70;0.60;;;;;;;11.62;93.35;96277.81;5009266;28;20175;-76
2024/01/24 09:15:48;;;;;;;0.60;0.43;;;;;;;11.55;94.01;96259.31;5013833;28;20186;-76
2024/01/24 09:18:14;;;;;;;0.20;0.20;;;;;;;11.95;92.89;96279.22;5031900;28;20196;-76
2024/01/24 09:20:39;;;;;;;0.30;0.30;;;;;;;11.71;93.50;96263.16;5015242;28;20568;-76
2024/01/24 09:23:05;;;;;;;0.30;0.30;;;;;;;11.90;93.72;96277.00;5013884;28;20205;-76
2024/01/24 09:25:30;;;;;;;0.20;0.20;;;;;;;11.81;93.87;96266.59;4998505;28;20186;-76
2024/01/24 09:27:56;;;;;;;0.30;0.30;;;;;;;11.88;94.13;96268.53;5031831;28;20178;-76
2024/01/24 09:30:21;;;;;;;0.23;0.23;;;;;;;11.68;95.10;96255.63;5014025;28;20202;-77
2024/01/24 09:32:46;;;;;;;0.40;0.40;;;;;;;12.00;93.70;96250.97;5010990;28;20198;-76
2024/01/24 09:35:12;;;;;;;0.60;0.40;;;;;;;12.04;93.09;96248.94;5013130;28;20274;-77
2024/01/24 09:37:37;;;;;;;0.40;0.40;;;;;;;12.22;92.08;96260.25;5011184;28;20186;-76
2024/01/24 09:40:04;;;;;;;0.33;0.33;;;;;;;12.13;92.41;96271.53;5011350;28;20264;-76
2024/01/24 09:42:32;;;;;;;0.83;0.40;;;;;;;12.15;92.00;96274.78;5013029;28;20175;-77
2024/01/24 09:44:58;;;;;;;0.60;0.60;;;;;;;12.29;92.04;96261.34;4999467;28;20182;-77
2024/01/24 09:47:23;;;;;;;0.40;0.40;;;;;;;12.25;91.94;96262.56;5008392;28;20248;-77
2024/01/24 09:49:49;;;;;;;0.43;0.30;;;;;;;12.24;91.71;96275.75;4998270;28;20206;-77
2024/01/24 09:52:17;;;;;;;0.40;0.40;;;;;;;12.36;91.29;96261.59;5016804;28;20220;-77
2024/01/24 09:54:44;;;;;;;0.40;0.30;;;;;;;12.26;91.64;96266.00;5024140;28;20179;-76
2024/01/24 09:57:09;;;;;;;0.77;0.40;;;;;;;12.26;91.59;96256.41;5000885;28;20179;-77
2024/01/24 09:59:35;;;;;;;0.77;0.20;;;;;;;11.89;93.02;96288.38;5013265;28;20194;-77
2024/01/24 10:02:00;;;;;;;0.30;0.30;;;;;;;12.28;91.71;96264.06;5015939;28;21273;-77
2024/01/24 10:04:26;;;;;;;0.60;0.30;;;;;;;12.14;92.21;96260.13;5002564;28;20190;-77
2024/01/24 10:06:52;;;;;;;0.30;0.30;;;;;;;12.15;89.16;96257.41;4999025;28;20560;-76
2024/01/24 10:09:17;;;;;;;0.40;0.40;;;;;;;12.26;88.66;96258.19;5011531;28;20233;-76
2024/01/24 10:11:43;;;;;;;0.77;0.50;;;;;;;12.18;87.56;96244.09;5030992;28;20333;-77
2024/01/24 10:14:08;;;;;;;0.93;0.73;;;;;;;12.26;86.27;96260.78;5010356;28;20187;-76
2024/01/24 10:16:34;;;;;;;0.50;0.50;;;;;;;12.31;85.38;96264.63;5033292;28;20197;-77
2024/01/24 10:19:00;;;;;;;2.33;0.53;;;;;;;12.37;85.75;96258.06;5015351;28;20293;-77
2024/01/24 10:21:25;;;;;;;0.43;0.37;;;;;;;12.28;87.02;96259.72;5031268;28;20307;-75
2024/01/24 10:23:53;;;;;;;0.77;0.40;;;;;;;12.20;89.48;96283.03;5011952;28;20260;-76
2024/01/24 10:26:19;;;;;;;0.40;0.40;;;;;;;12.07;90.94;96283.31;5007984;28;20612;-76
2024/01/24 10:28:45;;;;;;;0.30;0.30;;;;;;;12.11;90.44;96286.47;5008583;28;20293;-76
2024/01/24 10:31:11;;;;;;;0.30;0.30;;;;;;;12.37;89.38;96278.88;5031587;28;20723;-77
2024/01/24 10:33:37;;;;;;;0.30;0.30;;;;;;;12.13;88.60;96298.38;5015091;28;20194;-76
2024/01/24 10:36:03;;;;;;;0.87;0.30;;;;;;;12.18;88.71;96293.56;5011908;28;20530;-77
2024/01/24 10:38:33;;;;;;;1.63;1.40;;;;;;;12.32;88.62;96312.31;5017777;28;20198;-76
2024/01/24 10:41:00;;;;;;;15.70;9.00;;;;;;;12.37;88.01;96307.53;5008839;28;20684;-77
2024/01/24 10:43:26;;;;;;;2.30;1.10;;;;;;;12.32;87.83;96323.56;5040053;28;20235;-77
2024/01/24 10:45:51;;;;;;;1.20;0.60;;;;;;;12.19;89.13;96310.84;5010426;28;20546;-75
2024/01/24 10:48:17;;;;;;;1.03;0.93;;;;;;;12.04;91.18;96303.59;5016444;28;20201;-76
2024/01/24 10:50:44;;;;;;;0.83;0.30;;;;;;;12.16;91.45;96303.28;5032909;28;20205;-76
2024/01/24 10:53:09;;;;;;;0.30;0.27;;;;;;;12.18;92.38;96310.97;5011995;28;20190;-76
2024/01/24 10:55:36;;;;;;;0.30;0.30;;;;;;;12.20;91.94;96309.06;5016841;28;20182;-76
2024/01/24 10:58:02;;;;;;;0.20;0.20;;;;;;;12.09;93.12;96315.22;5021418;28;20244;-76
2024/01/24 11:00:28;;;;;;;1.93;0.40;;;;;;;12.15;92.31;96306.88;5025039;28;20211;-77
2024/01/24 11:02:54;;;;;;;0.40;0.40;;;;;;;12.27;92.36;96322.31;5033219;28;20193;-77
2024/01/24 11:05:24;;;;;;;0.20;0.20;;;;;;;12.06;93.02;96319.88;5013352;28;20175;-77
2024/01/24 11:07:54;;;;;;;0.20;0.20;;;;;;;12.27;92.11;96327.53;5042165;28;20675;-76
2024/01/24 11:10:28;;;;;;;0.30;0.30;;;;;;;12.10;93.38;96334.25;5034628;28;20252;-77
2024/01/24 11:12:54;;;;;;;0.47;0.47;;;;;;;12.19;93.61;96328.22;5035215;28;20182;-77
2024/01/24 11:15:21;;;;;;;0.30;0.30;;;;;;;11.84;95.31;96329.63;5001330;28;20237;-77
2024/01/24 11:18:21;;;;;;;0.53;0.40;;;;;;;12.11;94.62;96321.13;5034891;28;20179;-77
2024/01/24 11:20:49;;;;;;;0.37;0.37;;;;;;;11.90;95.18;96317.81;5032093;28;20268;-77
2024/01/24 11:23:45;;;;;;;0.70;0.70;;;;;;;12.08;95.25;96317.97;5023609;28;20191;-77
2024/01/24 11:26:11;;;;;;;1.60;0.50;;;;;;;11.98;95.28;96336.19;5016943;28;20628;-77